Clint, Texas
Current Conditions -  °F | °C
As of 8:48 PM on Sunday 21 Dec 2014 (Local Time) from MMCS Reporting Station
Scattered Clouds Scattered Clouds  
Wind Chill: 57°   Ceiling: Unl
Heat Index: 57°   Visibility: 10mi
Dew Point: 32°   Wind: 14mph
Humidity: 38%   Direction: 290°WNW
Pressure: 29.89"   Gusts: 26mph
Location:  31.59°N, 106.22°W
Report Text: MMCS 220348Z 29012G23KT 10SM FEW120 SCT200 14/00 A2989 RMK 8/032
Loading
Personal Weather Stations






























Interactive Weather Map New forecast layout! Learn more

10-Day Weather Forecast

Advertisements
Track Severe Weather on mobile